Time;durP1;ratioP1;P1;durP2;ratioP2;P2;SDS_P1;SDS_P2;PMS_P1;PMS_P2;Temp;Humidity;BMP_temperature;BMP_pressure;BME280_temperature;BME280_humidity;BME280_pressure;Samples;Min_cycle;Max_cycle;Signal;HPM_P1;HPM_P2
2022/07/24 00:00:16;;;;;;;2.38;1.88;;;16.60;99.90;;;;;;4994500;28;20082;-72
2022/07/24 00:02:42;;;;;;;3.15;2.17;;;16.60;99.90;;;;;;4995001;28;20053;-71
2022/07/24 00:05:08;;;;;;;5.13;2.42;;;16.50;99.90;;;;;;4993858;28;20120;-71
2022/07/24 00:07:34;;;;;;;3.25;2.20;;;16.50;99.90;;;;;;4993625;28;20072;-71
2022/07/24 00:10:02;;;;;;;2.30;2.10;;;16.50;99.90;;;;;;4994802;28;20478;-71
2022/07/24 00:12:28;;;;;;;2.92;1.75;;;16.50;99.90;;;;;;4977272;28;20050;-71
2022/07/24 00:14:54;;;;;;;3.10;2.22;;;16.50;99.90;;;;;;4994771;28;20046;-72
2022/07/24 00:17:19;;;;;;;3.25;2.45;;;16.40;99.90;;;;;;4977871;28;20050;-71
2022/07/24 00:19:45;;;;;;;2.63;2.20;;;16.40;99.90;;;;;;4995119;28;20082;-72
2022/07/24 00:22:11;;;;;;;1.98;1.80;;;16.40;99.90;;;;;;4994790;28;20376;-72
2022/07/24 00:24:37;;;;;;;3.65;2.00;;;16.40;99.90;;;;;;4993617;28;20046;-72
2022/07/24 00:27:02;;;;;;;2.40;1.95;;;16.30;99.90;;;;;;4993909;28;20058;-72
2022/07/24 00:29:28;;;;;;;3.78;2.00;;;16.30;99.90;;;;;;4994926;28;20058;-72
2022/07/24 00:31:54;;;;;;;2.83;1.63;;;16.20;99.90;;;;;;4993580;28;20038;-72
2022/07/24 00:34:20;;;;;;;3.95;1.90;;;16.20;99.90;;;;;;4993481;28;20053;-71
2022/07/24 00:36:45;;;;;;;3.05;1.92;;;16.20;99.90;;;;;;4995354;28;20047;-72
2022/07/24 00:39:11;;;;;;;2.83;1.98;;;16.10;99.90;;;;;;4994512;28;20398;-72
2022/07/24 00:41:37;;;;;;;3.58;1.92;;;16.10;99.90;;;;;;4994918;28;20097;-72
2022/07/24 00:44:09;;;;;;;3.17;2.42;;;16.10;99.90;;;;;;4994695;28;20054;-72
2022/07/24 00:46:37;;;;;;;4.32;2.00;;;16.10;99.90;;;;;;4993830;28;20056;-72
2022/07/24 00:49:08;;;;;;;3.65;2.60;;;16.00;99.90;;;;;;4994444;28;20134;-72
2022/07/24 00:51:34;;;;;;;3.75;2.15;;;16.00;99.90;;;;;;4994305;28;20050;-71
2022/07/24 00:54:03;;;;;;;3.08;2.08;;;16.00;99.90;;;;;;4994592;28;20045;-72
2022/07/24 00:56:29;;;;;;;2.22;2.03;;;16.00;99.90;;;;;;4993165;28;20046;-72
2022/07/24 00:58:55;;;;;;;3.80;2.20;;;15.90;99.90;;;;;;4994761;28;20048;-72
2022/07/24 01:01:21;;;;;;;2.10;1.90;;;15.90;99.90;;;;;;4993978;28;20485;-71
2022/07/24 01:03:47;;;;;;;4.22;2.42;;;15.90;99.90;;;;;;4993113;28;20050;-72
2022/07/24 01:06:14;;;;;;;3.75;2.40;;;15.90;99.90;;;;;;4994218;28;20046;-71
2022/07/24 01:08:42;;;;;;;3.25;1.90;;;15.80;99.90;;;;;;4994608;28;20042;-72
2022/07/24 01:11:10;;;;;;;4.78;2.67;;;15.80;99.90;;;;;;4994920;28;20126;-73
2022/07/24 01:13:36;;;;;;;3.65;2.30;;;15.80;99.90;;;;;;4994094;28;20050;-73
2022/07/24 01:16:02;;;;;;;6.20;2.33;;;15.70;99.90;;;;;;4994158;28;20394;-72
2022/07/24 01:18:27;;;;;;;3.63;2.30;;;15.70;99.90;;;;;;4992858;28;20050;-72
2022/07/24 01:20:55;;;;;;;4.10;2.53;;;15.70;99.90;;;;;;4993079;28;20049;-72
2022/07/24 01:23:21;;;;;;;2.70;2.00;;;15.70;99.90;;;;;;4994027;28;20144;-72
2022/07/24 01:25:47;;;;;;;4.63;2.55;;;15.60;99.90;;;;;;4994008;28;20058;-72
2022/07/24 01:28:13;;;;;;;3.13;2.38;;;15.60;99.90;;;;;;4993873;28;20153;-71
2022/07/24 01:30:39;;;;;;;3.35;2.35;;;15.60;99.90;;;;;;4992688;28;20149;-71
2022/07/24 01:33:04;;;;;;;4.18;2.88;;;15.60;99.90;;;;;;4993981;28;20043;-72
2022/07/24 01:35:30;;;;;;;3.53;2.58;;;15.60;99.90;;;;;;4993885;28;20486;-72
2022/07/24 01:37:56;;;;;;;3.33;2.30;;;15.60;99.90;;;;;;4992707;28;20080;-72
2022/07/24 01:40:22;;;;;;;3.22;2.50;;;15.50;99.90;;;;;;4992751;28;20050;-72
2022/07/24 01:42:48;;;;;;;3.10;2.30;;;15.50;99.90;;;;;;4994422;28;20053;-72
2022/07/24 01:45:14;;;;;;;3.88;2.63;;;15.50;99.90;;;;;;4994087;28;20046;-71
2022/07/24 01:47:41;;;;;;;3.70;2.40;;;15.50;99.90;;;;;;4993135;28;20045;-71
2022/07/24 01:50:07;;;;;;;4.05;2.58;;;15.50;99.90;;;;;;4993792;28;20046;-72
2022/07/24 01:52:33;;;;;;;3.88;2.70;;;15.50;99.90;;;;;;4994226;28;20050;-72
2022/07/24 01:54:58;;;;;;;3.45;2.38;;;15.50;99.90;;;;;;4993792;28;20133;-72
2022/07/24 01:57:24;;;;;;;3.30;2.50;;;15.40;99.90;;;;;;4994212;28;20039;-72
2022/07/24 01:59:50;;;;;;;7.88;3.08;;;15.40;99.90;;;;;;4980818;28;20047;-72
2022/07/24 02:02:16;;;;;;;3.15;2.83;;;15.40;99.90;;;;;;4997348;28;20512;-72
2022/07/24 02:04:42;;;;;;;3.78;2.70;;;15.40;99.90;;;;;;4997413;28;20051;-72
2022/07/24 02:07:07;;;;;;;3.63;2.40;;;15.40;99.90;;;;;;4997279;28;20235;-72
2022/07/24 02:09:33;;;;;;;3.28;2.85;;;15.30;99.90;;;;;;4997064;28;20050;-72
2022/07/24 02:11:59;;;;;;;4.53;2.78;;;15.30;99.90;;;;;;4996611;28;20132;-72
2022/07/24 02:14:24;;;;;;;3.80;2.45;;;15.30;99.90;;;;;;4997154;28;20405;-72
2022/07/24 02:16:50;;;;;;;4.47;3.40;;;15.30;99.90;;;;;;4997202;28;20049;-71
2022/07/24 02:19:16;;;;;;;3.38;2.90;;;15.30;99.90;;;;;;4979616;28;20478;-72
2022/07/24 02:21:41;;;;;;;4.00;2.90;;;15.30;99.90;;;;;;4997039;28;20137;-72
2022/07/24 02:24:07;;;;;;;4.75;2.83;;;15.30;99.90;;;;;;4996701;28;20093;-72
2022/07/24 02:26:33;;;;;;;4.28;2.92;;;15.30;99.90;;;;;;4997362;28;20058;-72
2022/07/24 02:28:59;;;;;;;4.72;3.10;;;15.20;99.90;;;;;;4997059;28;20142;-72
2022/07/24 02:31:24;;;;;;;4.32;3.08;;;15.20;99.90;;;;;;4996921;28;20058;-72
2022/07/24 02:33:51;;;;;;;4.55;2.92;;;15.20;99.90;;;;;;4996840;28;20043;-71
2022/07/24 02:36:17;;;;;;;4.22;2.80;;;15.20;99.90;;;;;;4995624;28;20450;-72
2022/07/24 02:38:43;;;;;;;4.65;3.17;;;15.20;99.90;;;;;;4996069;28;20367;-71
2022/07/24 02:41:09;;;;;;;4.13;3.15;;;15.20;99.90;;;;;;4996685;28;20483;-72
2022/07/24 02:43:34;;;;;;;4.57;3.03;;;15.10;99.90;;;;;;4997452;28;20050;-72
2022/07/24 02:46:00;;;;;;;4.10;2.92;;;15.20;99.90;;;;;;4996307;28;20042;-71
2022/07/24 02:48:26;;;;;;;6.13;3.58;;;15.10;99.90;;;;;;4997018;28;20050;-71
2022/07/24 02:50:52;;;;;;;4.78;3.22;;;15.10;99.90;;;;;;4995060;28;20049;-71
2022/07/24 02:53:18;;;;;;;4.32;3.33;;;15.20;99.90;;;;;;4996511;28;20089;-72
2022/07/24 02:55:44;;;;;;;5.32;3.53;;;15.20;99.90;;;;;;4996539;28;20046;-71
2022/07/24 02:58:09;;;;;;;3.17;2.85;;;15.20;99.90;;;;;;4996467;28;20053;-72
2022/07/24 03:00:36;;;;;;;4.43;3.40;;;15.10;99.90;;;;;;4996174;28;20054;-72
2022/07/24 03:03:02;;;;;;;3.78;3.38;;;15.20;99.90;;;;;;4996898;28;20051;-72
2022/07/24 03:05:28;;;;;;;3.75;3.03;;;15.20;99.90;;;;;;4995342;28;20046;-72
2022/07/24 03:07:53;;;;;;;3.88;3.08;;;15.10;99.90;;;;;;4996398;28;20042;-72
2022/07/24 03:10:19;;;;;;;5.38;3.80;;;15.10;99.90;;;;;;4994676;28;20125;-73
2022/07/24 03:12:45;;;;;;;3.38;3.00;;;15.10;99.90;;;;;;4994937;28;20383;-72
2022/07/24 03:15:12;;;;;;;4.03;3.30;;;15.10;99.90;;;;;;4996948;28;20050;-72
2022/07/24 03:17:38;;;;;;;5.25;2.97;;;15.10;99.90;;;;;;4996152;28;20116;-72
2022/07/24 03:20:05;;;;;;;4.25;3.13;;;15.10;99.90;;;;;;4996065;28;20049;-72
2022/07/24 03:22:31;;;;;;;5.25;3.35;;;15.10;99.90;;;;;;4995979;28;20060;-72
2022/07/24 03:24:57;;;;;;;4.22;3.42;;;15.10;99.90;;;;;;4996089;28;20042;-72
2022/07/24 03:27:22;;;;;;;4.30;3.42;;;15.10;99.90;;;;;;4995565;28;20537;-71
2022/07/24 03:29:48;;;;;;;3.90;3.22;;;15.10;99.90;;;;;;4996341;28;20121;-72
2022/07/24 03:32:14;;;;;;;5.45;3.38;;;15.10;99.90;;;;;;4995168;28;20056;-72
2022/07/24 03:34:40;;;;;;;3.95;3.35;;;15.10;99.90;;;;;;4994523;28;20050;-72
2022/07/24 03:37:05;;;;;;;4.18;3.40;;;15.10;99.90;;;;;;4994983;28;20046;-73
2022/07/24 03:39:31;;;;;;;4.07;3.47;;;15.10;99.90;;;;;;4994613;28;20082;-72
2022/07/24 03:41:57;;;;;;;4.10;3.40;;;15.20;99.90;;;;;;4995513;28;20050;-72
2022/07/24 03:44:22;;;;;;;4.20;3.60;;;15.20;99.90;;;;;;4995448;28;20056;-72
2022/07/24 03:46:48;;;;;;;4.10;3.22;;;15.20;99.90;;;;;;4995935;28;20046;-72
2022/07/24 03:49:14;;;;;;;5.15;3.20;;;15.20;99.90;;;;;;4995997;28;20137;-72
2022/07/24 03:51:39;;;;;;;4.22;3.22;;;15.20;99.90;;;;;;4995390;28;20100;-72
2022/07/24 03:54:05;;;;;;;3.70;3.38;;;15.30;99.90;;;;;;4995520;28;20124;-72
2022/07/24 03:56:31;;;;;;;4.53;3.30;;;15.30;99.90;;;;;;4995793;28;20046;-72
2022/07/24 03:58:56;;;;;;;6.78;3.40;;;15.30;99.90;;;;;;4995134;28;20077;-72
2022/07/24 04:01:22;;;;;;;5.45;3.35;;;15.30;99.90;;;;;;4995289;28;20054;-72
2022/07/24 04:03:48;;;;;;;6.30;3.03;;;15.30;99.90;;;;;;4995137;28;20078;-72
2022/07/24 04:06:14;;;;;;;4.40;3.13;;;15.30;99.90;;;;;;4995048;28;20082;-72
2022/07/24 04:08:40;;;;;;;7.20;3.60;;;15.40;99.90;;;;;;4994569;28;20089;-71
2022/07/24 04:11:07;;;;;;;6.32;3.30;;;15.40;99.90;;;;;;4995454;28;20052;-72
2022/07/24 04:13:33;;;;;;;4.60;3.10;;;15.40;99.90;;;;;;4995186;28;20054;-72
2022/07/24 04:15:59;;;;;;;5.45;3.13;;;15.40;99.90;;;;;;4994969;28;20120;-72
2022/07/24 04:18:25;;;;;;;4.65;3.58;;;15.50;99.90;;;;;;4994864;28;20460;-72
2022/07/24 04:20:51;;;;;;;5.03;3.70;;;15.50;99.90;;;;;;4994055;28;20088;-72
2022/07/24 04:23:17;;;;;;;4.93;3.40;;;15.50;99.90;;;;;;4994764;28;20050;-72
2022/07/24 04:25:43;;;;;;;3.42;3.03;;;15.50;99.90;;;;;;4994676;28;20574;-72
2022/07/24 04:28:09;;;;;;;3.33;3.03;;;15.60;99.90;;;;;;4961330;28;20062;-72
2022/07/24 04:30:35;;;;;;;5.07;3.17;;;15.60;99.90;;;;;;4993391;28;20506;-72
2022/07/24 04:33:01;;;;;;;6.35;3.47;;;15.60;99.90;;;;;;4993857;28;20050;-72
2022/07/24 04:35:26;;;;;;;4.53;3.30;;;15.60;99.90;;;;;;4994789;28;20055;-71
2022/07/24 04:37:52;;;;;;;3.33;2.97;;;15.60;99.90;;;;;;4994642;28;20145;-71
2022/07/24 04:40:18;;;;;;;4.03;3.40;;;15.60;99.90;;;;;;4994515;28;20046;-72
2022/07/24 04:42:44;;;;;;;4.45;3.28;;;15.70;99.90;;;;;;4994455;28;20050;-72
2022/07/24 04:45:12;;;;;;;6.00;3.75;;;15.70;99.90;;;;;;4994026;28;20113;-72
2022/07/24 04:47:38;;;;;;;5.43;3.53;;;15.50;99.90;;;;;;4994332;28;20105;-72
2022/07/24 04:50:05;;;;;;;5.55;3.80;;;15.70;99.90;;;;;;4993588;28;20383;-72
2022/07/24 04:52:31;;;;;;;4.43;3.47;;;15.70;99.90;;;;;;4994665;28;20082;-72
2022/07/24 04:54:57;;;;;;;4.72;3.33;;;15.70;99.90;;;;;;4994318;28;20447;-72
2022/07/24 04:57:23;;;;;;;5.95;3.72;;;15.70;99.90;;;;;;4994322;28;20050;-72
2022/07/24 04:59:48;;;;;;;5.95;3.55;;;15.70;99.90;;;;;;4993329;28;20125;-72
2022/07/24 05:02:14;;;;;;;3.65;3.35;;;15.80;99.90;;;;;;4993078;28;20073;-72
2022/07/24 05:04:40;;;;;;;3.13;2.83;;;15.80;99.90;;;;;;4994260;28;20121;-72
2022/07/24 05:07:06;;;;;;;6.38;3.88;;;15.80;99.90;;;;;;4994185;28;20441;-72
2022/07/24 05:09:32;;;;;;;4.45;3.15;;;15.90;99.90;;;;;;4993107;28;20038;-72
2022/07/24 05:11:57;;;;;;;4.90;2.90;;;15.90;99.90;;;;;;4994208;28;20038;-72
2022/07/24 05:14:23;;;;;;;5.05;3.40;;;16.00;99.90;;;;;;4994123;28;20109;-73
2022/07/24 05:16:49;;;;;;;3.83;3.13;;;16.10;99.90;;;;;;4992950;28;20073;-71
2022/07/24 05:19:14;;;;;;;3.97;3.42;;;16.10;99.90;;;;;;4976790;28;20078;-72
2022/07/24 05:21:40;;;;;;;4.63;3.45;;;16.20;99.90;;;;;;4994151;28;20046;-71
2022/07/24 05:24:06;;;;;;;4.30;3.30;;;16.20;99.90;;;;;;4993096;28;20100;-71
2022/07/24 05:26:32;;;;;;;3.85;3.25;;;16.20;99.90;;;;;;4994298;28;20502;-71
2022/07/24 05:28:59;;;;;;;4.97;3.35;;;16.20;99.90;;;;;;4992440;28;20123;-71
2022/07/24 05:31:25;;;;;;;4.65;3.83;;;16.30;99.90;;;;;;4977155;28;20050;-72
2022/07/24 05:33:51;;;;;;;4.78;3.22;;;16.30;99.90;;;;;;4997961;28;20053;-71
2022/07/24 05:36:16;;;;;;;3.75;3.35;;;16.40;99.90;;;;;;4997906;28;20049;-71
2022/07/24 05:38:43;;;;;;;4.20;3.70;;;16.40;99.90;;;;;;4998482;28;20390;-71
2022/07/24 05:41:10;;;;;;;5.03;3.42;;;16.50;99.90;;;;;;4996839;28;20050;-71
2022/07/24 05:43:36;;;;;;;3.90;3.50;;;16.50;99.90;;;;;;4996897;28;20054;-70
2022/07/24 05:46:02;;;;;;;3.85;3.33;;;16.50;99.90;;;;;;4997707;28;20046;-71
2022/07/24 05:48:28;;;;;;;4.43;3.90;;;16.60;99.90;;;;;;4996451;28;20046;-71
2022/07/24 05:50:54;;;;;;;4.03;3.05;;;16.60;99.90;;;;;;4997674;28;20050;-71
2022/07/24 05:53:20;;;;;;;4.75;3.65;;;16.60;99.90;;;;;;4996521;28;20046;-69
2022/07/24 05:55:46;;;;;;;5.00;3.33;;;16.60;99.90;;;;;;4997606;28;20073;-68
2022/07/24 05:58:12;;;;;;;4.22;3.53;;;16.60;99.90;;;;;;4980076;28;20041;-69
2022/07/24 06:00:37;;;;;;;4.15;3.63;;;16.70;99.90;;;;;;4997332;28;20172;-69
2022/07/24 06:03:03;;;;;;;6.72;3.50;;;16.70;99.90;;;;;;4997667;28;20054;-69
2022/07/24 06:05:29;;;;;;;4.22;3.58;;;16.70;99.90;;;;;;4996678;28;20096;-69
2022/07/24 06:07:54;;;;;;;4.25;3.85;;;16.80;99.90;;;;;;4997784;28;20129;-69
2022/07/24 06:10:20;;;;;;;4.30;3.85;;;16.90;99.90;;;;;;4996553;28;20054;-69
2022/07/24 06:12:46;;;;;;;3.95;3.63;;;17.00;99.90;;;;;;4998060;28;20053;-69
2022/07/24 06:15:12;;;;;;;5.78;3.60;;;17.10;99.90;;;;;;4997838;28;20391;-69
2022/07/24 06:17:38;;;;;;;6.18;4.13;;;17.20;99.90;;;;;;4997090;28;20046;-69
2022/07/24 06:20:05;;;;;;;4.70;4.25;;;17.20;99.90;;;;;;4997110;28;20042;-69
2022/07/24 06:22:31;;;;;;;6.32;4.82;;;17.30;99.90;;;;;;4995890;28;20054;-69
2022/07/24 06:24:56;;;;;;;4.93;4.30;;;17.40;99.90;;;;;;4997472;28;20050;-69
2022/07/24 06:27:22;;;;;;;7.80;4.85;;;17.50;99.90;;;;;;4996646;28;20086;-68
2022/07/24 06:29:48;;;;;;;6.63;4.70;;;17.50;99.90;;;;;;4996891;28;20109;-69
2022/07/24 06:32:14;;;;;;;7.43;4.13;;;17.60;99.90;;;;;;4995697;28;20042;-69
2022/07/24 06:34:39;;;;;;;6.45;5.22;;;17.60;99.90;;;;;;4996841;28;20049;-69
2022/07/24 06:37:05;;;;;;;5.40;4.75;;;17.60;99.90;;;;;;4995737;28;20046;-69
2022/07/24 06:39:31;;;;;;;6.22;5.28;;;17.60;99.90;;;;;;4996575;28;20047;-69
2022/07/24 06:41:56;;;;;;;5.68;5.05;;;17.70;99.90;;;;;;4979647;28;20398;-69
2022/07/24 06:44:22;;;;;;;6.78;5.15;;;17.70;99.90;;;;;;4995818;28;20386;-70
2022/07/24 06:46:48;;;;;;;5.82;5.15;;;17.80;99.90;;;;;;4997069;28;20054;-69
2022/07/24 06:49:14;;;;;;;6.25;5.65;;;17.90;99.90;;;;;;4996796;28;20108;-69
2022/07/24 06:51:40;;;;;;;8.13;5.70;;;18.00;99.90;;;;;;4995910;28;20062;-70
2022/07/24 06:54:06;;;;;;;6.40;5.85;;;18.10;99.90;;;;;;4995509;28;20046;-71
2022/07/24 06:56:31;;;;;;;7.88;6.43;;;18.20;99.90;;;;;;4995175;28;20073;-71
2022/07/24 06:58:59;;;;;;;6.82;5.90;;;18.30;99.90;;;;;;4995037;28;20043;-71
2022/07/24 07:01:25;;;;;;;7.60;5.97;;;18.40;99.90;;;;;;4996319;28;20061;-70
2022/07/24 07:03:53;;;;;;;7.03;6.13;;;18.50;99.90;;;;;;4996496;28;20046;-70
2022/07/24 07:06:19;;;;;;;7.13;6.10;;;18.60;99.90;;;;;;4996514;28;20367;-70
2022/07/24 07:08:44;;;;;;;8.13;6.32;;;18.70;99.90;;;;;;4996393;28;20047;-70
2022/07/24 07:11:10;;;;;;;9.05;6.35;;;18.80;99.90;;;;;;4994949;28;20046;-71
2022/07/24 07:13:36;;;;;;;7.03;6.25;;;18.80;99.90;;;;;;4995920;28;20049;-70
2022/07/24 07:16:02;;;;;;;8.00;6.93;;;18.90;99.90;;;;;;4996093;28;20624;-70
2022/07/24 07:18:28;;;;;;;7.40;6.70;;;18.90;99.90;;;;;;4978870;28;20042;-70
2022/07/24 07:20:53;;;;;;;9.93;7.35;;;18.90;99.90;;;;;;4995015;28;20054;-69
2022/07/24 07:23:24;;;;;;;11.68;7.68;;;18.90;99.90;;;;;;4995959;28;20450;-71
2022/07/24 07:25:49;;;;;;;10.85;7.22;;;19.00;99.90;;;;;;4996424;28;20430;-71
2022/07/24 07:28:16;;;;;;;9.52;7.43;;;19.10;99.90;;;;;;4978753;28;20061;-71
2022/07/24 07:30:41;;;;;;;11.63;7.70;;;19.10;99.90;;;;;;4994605;28;20058;-71
2022/07/24 07:33:07;;;;;;;9.88;7.43;;;19.20;99.90;;;;;;4995612;28;20134;-71
2022/07/24 07:35:33;;;;;;;8.52;7.22;;;19.20;99.90;;;;;;4995733;28;20123;-80
2022/07/24 07:37:59;;;;;;;10.50;8.40;;;19.30;99.90;;;;;;4995067;28;20050;-79
2022/07/24 07:40:25;;;;;;;11.88;7.78;;;19.30;99.90;;;;;;4995755;28;20085;-77
2022/07/24 07:42:51;;;;;;;8.38;7.35;;;19.40;99.90;;;;;;4995627;28;20509;-77
2022/07/24 07:45:17;;;;;;;8.82;7.70;;;19.40;99.90;;;;;;4994318;28;20490;-77
2022/07/24 07:47:43;;;;;;;11.07;7.45;;;19.50;99.90;;;;;;4996509;28;20133;-78
2022/07/24 07:50:09;;;;;;;10.65;8.18;;;19.50;99.90;;;;;;4995955;28;20050;-78
2022/07/24 07:52:35;;;;;;;10.95;8.48;;;19.60;99.90;;;;;;4994417;28;20054;-78
2022/07/24 07:55:02;;;;;;;10.55;9.15;;;19.70;99.90;;;;;;4995833;28;20043;-77
2022/07/24 07:57:28;;;;;;;10.32;7.90;;;19.70;99.90;;;;;;4995286;28;20125;-78
2022/07/24 07:59:54;;;;;;;9.73;8.65;;;19.70;99.90;;;;;;4996860;28;20140;-78
2022/07/24 08:02:19;;;;;;;12.18;8.00;;;19.80;99.90;;;;;;4977937;28;20050;-73
2022/07/24 08:04:45;;;;;;;11.82;8.70;;;19.90;99.90;;;;;;4993851;28;20047;-73
2022/07/24 08:07:11;;;;;;;12.25;9.23;;;19.90;99.90;;;;;;4994205;28;20052;-72
2022/07/24 08:09:37;;;;;;;12.70;9.48;;;20.00;99.90;;;;;;4995801;28;20042;-74
2022/07/24 08:12:04;;;;;;;13.35;9.63;;;20.10;99.90;;;;;;4995226;28;20046;-75
2022/07/24 08:14:30;;;;;;;14.07;9.88;;;20.30;99.90;;;;;;4995137;28;20133;-74
2022/07/24 08:16:55;;;;;;;13.57;10.90;;;20.40;99.90;;;;;;4994118;28;20129;-73
2022/07/24 08:19:22;;;;;;;14.25;10.20;;;20.60;99.90;;;;;;4995040;28;20050;-76
2022/07/24 08:21:48;;;;;;;11.73;9.52;;;20.70;99.90;;;;;;4995005;28;20053;-74
2022/07/24 08:24:20;;;;;;;12.85;10.75;;;20.80;99.90;;;;;;4994123;28;20040;-75
2022/07/24 08:26:47;;;;;;;11.88;8.65;;;20.90;99.90;;;;;;4994989;28;20508;-74
2022/07/24 08:29:12;;;;;;;11.70;9.60;;;20.90;99.90;;;;;;4995149;28;20544;-75
2022/07/24 08:31:38;;;;;;;11.75;9.13;;;20.90;99.90;;;;;;4995021;28;20054;-77
2022/07/24 08:34:04;;;;;;;10.18;8.43;;;21.00;99.90;;;;;;4995253;28;20125;-76
2022/07/24 08:36:30;;;;;;;10.93;8.20;;;21.10;99.90;;;;;;4995742;28;20071;-75
2022/07/24 08:38:56;;;;;;;8.23;7.35;;;21.10;99.90;;;;;;4995800;28;20042;-76
2022/07/24 08:41:22;;;;;;;6.65;5.85;;;21.20;99.90;;;;;;4996685;28;20046;-76
2022/07/24 08:43:48;;;;;;;8.73;6.03;;;21.30;99.90;;;;;;4998042;28;20047;-77
2022/07/24 08:46:16;;;;;;;6.70;5.20;;;21.30;99.90;;;;;;4995787;28;20051;-76
2022/07/24 08:48:45;;;;;;;5.55;4.25;;;21.40;99.90;;;;;;4996394;28;20043;-75
2022/07/24 08:51:14;;;;;;;5.60;4.15;;;21.40;99.90;;;;;;4996717;28;20449;-74
2022/07/24 08:53:42;;;;;;;4.50;3.80;;;21.50;99.90;;;;;;4995177;28;20117;-74
2022/07/24 08:56:09;;;;;;;4.03;3.60;;;21.60;99.90;;;;;;4995466;28;20052;-75
2022/07/24 08:58:38;;;;;;;3.72;3.08;;;21.60;99.90;;;;;;4995459;28;20046;-74
2022/07/24 09:01:04;;;;;;;4.50;3.17;;;21.80;99.90;;;;;;4995314;28;20054;-80
2022/07/24 09:03:42;;;;;;;3.00;2.70;;;21.80;99.90;;;;;;4979077;28;20053;-77
2022/07/24 09:06:10;;;;;;;4.20;3.13;;;21.90;99.90;;;;;;4996257;28;20050;-77
2022/07/24 09:08:37;;;;;;;7.13;3.67;;;21.90;99.90;;;;;;5001617;28;20177;-78
2022/07/24 09:11:04;;;;;;;4.40;3.40;;;22.00;99.90;;;;;;4997399;28;20050;-79
2022/07/24 09:16:33;;;;;;;;;;;22.10;99.90;;;;;;4953747;29;20059;-78
2022/07/24 09:19:08;;;;;;;6.85;3.55;;;22.20;99.90;;;;;;4980477;28;20375;-78
2022/07/24 09:21:35;;;;;;;2.85;2.55;;;22.20;99.90;;;;;;4993160;28;20054;-74
2022/07/24 09:24:13;;;;;;;3.03;1.95;;;22.20;99.90;;;;;;4994591;28;20053;-78
2022/07/24 09:26:55;;;;;;;2.63;2.17;;;22.20;99.90;;;;;;4994839;28;20086;-79
2022/07/24 09:29:22;;;;;;;3.45;2.05;;;22.30;99.90;;;;;;4992618;28;20181;-78
2022/07/24 09:31:55;;;;;;;1.88;1.75;;;22.40;99.90;;;;;;4993458;28;20053;-76
2022/07/24 09:34:23;;;;;;;3.45;1.83;;;22.40;99.90;;;;;;4993849;28;20049;-78
2022/07/24 09:37:04;;;;;;;6.25;2.00;;;22.50;99.90;;;;;;4993217;28;20054;-76
2022/07/24 09:39:36;;;;;;;4.00;2.15;;;22.50;99.90;;;;;;4994676;28;20056;-78
2022/07/24 09:42:03;;;;;;;3.47;1.90;;;22.60;99.90;;;;;;4992400;28;20049;-81
2022/07/24 09:44:30;;;;;;;3.00;1.80;;;22.70;99.90;;;;;;4993147;28;20039;-76
2022/07/24 09:47:02;;;;;;;3.13;1.92;;;22.80;99.90;;;;;;4993543;28;20090;-76
2022/07/24 09:49:28;;;;;;;;;;;22.80;99.90;;;;;;4993815;28;20485;-76
2022/07/24 09:52:17;;;;;;;4.20;1.60;;;22.80;99.90;;;;;;4993247;28;19921;-76
2022/07/24 09:54:48;;;;;;;3.13;2.10;;;22.80;99.90;;;;;;4994180;28;20050;-74
2022/07/24 09:57:17;;;;;;;2.38;1.92;;;22.80;99.90;;;;;;4992022;28;20053;-72
2022/07/24 10:00:06;;;;;;;2.40;1.75;;;22.70;99.90;;;;;;4993568;28;20449;-73
2022/07/24 10:02:34;;;;;;;2.67;1.80;;;22.70;99.90;;;;;;4993142;28;20143;-74
2022/07/24 10:05:01;;;;;;;3.08;1.98;;;22.80;99.90;;;;;;4993179;28;20101;-73
2022/07/24 10:07:29;;;;;;;2.72;2.05;;;22.90;99.90;;;;;;4993731;28;20053;-69
2022/07/24 10:09:59;;;;;;;2.35;1.85;;;23.00;99.90;;;;;;4994386;28;20058;-74
2022/07/24 10:12:28;;;;;;;3.28;1.70;;;23.00;99.90;;;;;;4993478;28;20105;-76
2022/07/24 10:14:59;;;;;;;1.70;1.52;;;23.10;99.90;;;;;;4993567;28;20042;-74
2022/07/24 10:18:06;;;;;;;5.18;1.80;;;23.10;99.90;;;;;;4993431;28;20417;-75
2022/07/24 10:20:44;;;;;;;3.13;1.58;;;23.10;99.90;;;;;;4996393;28;20056;-75
2022/07/24 10:23:28;;;;;;;1.88;1.60;;;23.20;99.90;;;;;;4997809;28;20449;-78
2022/07/24 10:26:07;;;;;;;2.13;1.60;;;23.20;99.90;;;;;;4997037;28;20125;-73
2022/07/24 10:28:41;;;;;;;2.72;1.73;;;23.30;99.90;;;;;;4996052;28;20145;-77
2022/07/24 10:31:10;;;;;;;1.88;1.50;;;23.40;99.90;;;;;;4997874;28;20502;-79
2022/07/24 10:33:37;;;;;;;3.58;1.58;;;23.50;99.90;;;;;;4997367;28;20049;-74
2022/07/24 10:36:15;;;;;;;2.22;1.60;;;23.50;99.90;;;;;;4997848;28;20363;-74
2022/07/24 10:38:49;;;;;;;3.75;2.05;;;23.60;99.90;;;;;;4996915;28;20141;-76
2022/07/24 10:41:24;;;;;;;1.95;1.50;;;23.70;99.90;;;;;;4996331;28;20101;-74
2022/07/24 10:44:14;;;;;;;2.33;1.60;;;23.70;99.90;;;;;;4997494;28;20053;-76
2022/07/24 10:46:59;;;;;;;4.30;1.70;;;23.90;99.90;;;;;;4997438;28;20046;-77
2022/07/24 10:49:44;;;;;;;1.92;1.58;;;24.10;99.90;;;;;;4997375;28;20061;-77
2022/07/24 10:52:22;;;;;;;1.65;1.55;;;24.30;99.90;;;;;;4997386;28;20141;-78
2022/07/24 10:54:48;;;;;;;2.05;1.70;;;24.40;99.90;;;;;;4996759;28;20042;-78
2022/07/24 10:57:14;;;;;;;2.15;1.65;;;24.40;99.90;;;;;;4997399;28;20058;-80
2022/07/24 10:59:42;;;;;;;3.15;1.42;;;24.40;99.90;;;;;;4996631;28;20383;-83
2022/07/24 11:02:54;;;;;;;5.65;1.70;;;24.40;99.90;;;;;;4979601;28;20045;-75
2022/07/24 11:05:30;;;;;;;2.47;1.30;;;24.40;99.90;;;;;;4994462;28;20065;-75
2022/07/24 11:08:18;;;;;;;1.65;1.20;;;24.30;99.90;;;;;;4997272;28;20071;-78
2022/07/24 11:10:48;;;;;;;1.40;1.20;;;24.40;99.90;;;;;;4996415;28;20133;-78
2022/07/24 11:13:32;;;;;;;3.50;1.75;;;24.40;99.90;;;;;;4996188;28;20054;-74
2022/07/24 11:16:15;;;;;;;2.13;1.50;;;24.40;99.90;;;;;;4996170;28;20490;-77
2022/07/24 11:18:47;;;;;;;1.88;1.40;;;24.50;99.90;;;;;;4994678;28;20517;-78
2022/07/24 11:21:30;;;;;;;2.25;1.48;;;24.50;99.90;;;;;;4996102;28;20054;-76
2022/07/24 11:24:14;;;;;;;3.80;1.60;;;24.50;99.90;;;;;;4996912;28;20046;-76
2022/07/24 11:26:46;;;;;;;2.47;1.50;;;24.50;99.90;;;;;;4996690;28;20046;-75
2022/07/24 11:29:13;;;;;;;;;;;24.60;99.90;;;;;;4995817;28;20054;-76
2022/07/24 11:31:39;;;;;;;1.90;1.60;;;24.60;99.90;;;;;;4995717;28;20370;-77
2022/07/24 11:34:07;;;;;;;2.13;1.65;;;24.50;99.90;;;;;;4995908;28;20090;-76
2022/07/24 11:36:34;;;;;;;2.17;1.50;;;24.50;99.90;;;;;;4995513;28;20561;-71
2022/07/24 11:39:00;;;;;;;3.22;1.70;;;24.50;99.90;;;;;;4995055;28;20475;-77
2022/07/24 11:41:25;;;;;;;2.13;1.48;;;24.60;99.90;;;;;;4994832;28;20053;-77
2022/07/24 11:43:54;;;;;;;1.63;1.50;;;24.70;99.90;;;;;;4994355;28;20054;-78
2022/07/24 11:46:37;;;;;;;2.15;1.50;;;24.80;99.90;;;;;;4994322;28;20479;-80
2022/07/24 11:49:06;;;;;;;;;;;24.90;99.90;;;;;;4995568;28;20054;-79
2022/07/24 11:51:40;;;;;;;3.55;1.40;;;25.00;99.90;;;;;;4994193;28;20003;-80
2022/07/24 11:54:06;;;;;;;3.92;1.40;;;25.10;99.90;;;;;;4995184;28;20042;-78
2022/07/24 11:56:32;;;;;;;2.95;1.38;;;25.20;99.90;;;;;;4995241;28;20056;-81
2022/07/24 11:58:58;;;;;;;3.10;1.55;;;25.30;99.90;;;;;;4994838;28;20133;-79
2022/07/24 12:01:24;;;;;;;2.03;1.50;;;25.20;99.90;;;;;;4994166;28;20050;-78
2022/07/24 12:03:56;;;;;;;3.22;1.40;;;25.30;99.90;;;;;;4993923;28;20050;-78
2022/07/24 12:06:21;;;;;;;;;;;25.30;99.90;;;;;;4994337;28;20051;-76
2022/07/24 12:08:47;;;;;;;2.28;1.30;;;25.40;99.90;;;;;;4994809;28;20103;-83
2022/07/24 12:11:23;;;;;;;2.70;1.70;;;25.50;99.90;;;;;;4994780;28;20482;-78
2022/07/24 12:13:52;;;;;;;2.22;1.48;;;25.50;99.90;;;;;;4995307;28;20146;-78
2022/07/24 12:16:25;;;;;;;2.22;1.38;;;25.50;99.90;;;;;;4993663;28;20460;-78
2022/07/24 12:18:50;;;;;;;2.58;1.60;;;25.50;99.90;;;;;;4994409;28;20458;-86
2022/07/24 12:21:18;;;;;;;3.78;1.50;;;25.50;99.90;;;;;;4994609;28;20155;-86
2022/07/24 12:23:47;;;;;;;2.35;1.30;;;25.50;99.90;;;;;;4993325;28;20083;-84
2022/07/24 12:26:12;;;;;;;3.28;1.30;;;25.60;99.90;;;;;;4977626;28;20178;-83
2022/07/24 12:28:38;;;;;;;2.20;1.27;;;25.70;99.90;;;;;;4994448;28;20275;-79
2022/07/24 12:31:08;;;;;;;1.73;1.40;;;25.70;99.90;;;;;;4997390;28;20054;-79
2022/07/24 12:33:34;;;;;;;1.92;1.25;;;25.80;99.90;;;;;;4998225;28;20050;-79
2022/07/24 12:36:08;;;;;;;1.48;1.38;;;25.80;99.90;;;;;;4997167;28;20096;-81
2022/07/24 12:38:50;;;;;;;1.48;1.25;;;25.80;99.40;;;;;;5001695;28;20072;-78
2022/07/24 12:41:19;;;;;;;1.50;1.25;;;25.80;99.80;;;;;;4995998;28;20043;-81
2022/07/24 12:43:49;;;;;;;3.20;1.42;;;25.90;99.40;;;;;;5002664;28;20064;-79
2022/07/24 12:46:16;;;;;;;3.60;1.73;;;25.90;99.10;;;;;;5001778;28;20394;-82
2022/07/24 12:48:59;;;;;;;3.60;1.20;;;25.90;99.10;;;;;;5000864;28;20074;-86
2022/07/24 12:51:26;;;;;;;3.05;1.42;;;26.00;97.50;;;;;;4999932;28;20050;-81
2022/07/24 12:53:55;;;;;;;1.50;1.20;;;26.00;98.00;;;;;;4997654;28;20042;-84